Time;durP1;ratioP1;P1;durP2;ratioP2;P2;SDS_P1;SDS_P2;PMS_P1;PMS_P2;Temp;Humidity;BMP_temperature;BMP_pressure;BME280_temperature;BME280_humidity;BME280_pressure;Samples;Min_cycle;Max_cycle;Signal;HPM_P1;HPM_P2
2021/05/30 00:00:55;;;;;;;4.45;3.25;;;;;;;15.96;82.61;100122.97;1733436;80;21014;-46
2021/05/30 00:03:22;;;;;;;3.85;3.45;;;;;;;15.95;82.76;100116.75;1701910;82;21013;-47
2021/05/30 00:05:49;;;;;;;3.90;3.52;;;;;;;15.97;82.92;100128.70;1705496;82;21537;-46
2021/05/30 00:08:16;;;;;;;5.50;3.87;;;;;;;15.96;82.76;100121.63;1704066;83;21013;-45
2021/05/30 00:10:44;;;;;;;5.67;4.22;;;;;;;15.96;82.92;100122.97;1676450;83;21059;-44
2021/05/30 00:13:12;;;;;;;5.35;3.62;;;;;;;15.96;83.07;100129.20;1702933;82;21026;-45
2021/05/30 00:15:40;;;;;;;4.37;3.90;;;;;;;15.97;82.90;100128.70;1705204;82;21010;-42
2021/05/30 00:18:07;;;;;;;6.20;3.98;;;;;;;15.96;82.67;100131.04;1698825;82;20986;-44
2021/05/30 00:20:34;;;;;;;5.37;3.40;;;;;;;15.93;82.77;100125.94;1703739;82;21117;-42
2021/05/30 00:23:01;;;;;;;5.37;3.20;;;;;;;15.92;82.65;100137.66;1702022;82;21539;-42
2021/05/30 00:25:27;;;;;;;3.77;3.08;;;;;;;15.89;82.72;100144.15;1708540;82;21076;-42
2021/05/30 00:27:54;;;;;;;3.17;2.80;;;;;;;15.87;82.66;100141.23;1701672;82;21041;-42
2021/05/30 00:30:21;;;;;;;5.28;3.25;;;;;;;15.85;82.68;100140.51;1706255;82;21048;-42
2021/05/30 00:32:48;;;;;;;3.47;2.95;;;;;;;15.84;82.58;100143.69;1696809;82;21001;-42
2021/05/30 00:35:15;;;;;;;6.20;3.27;;;;;;;15.84;82.86;100149.07;1703085;82;21643;-47
2021/05/30 00:37:41;;;;;;;4.53;3.00;;;;;;;15.84;82.68;100147.73;1702771;82;21044;-43
2021/05/30 00:40:09;;;;;;;4.25;3.10;;;;;;;15.83;82.71;100150.56;1760210;80;20968;-44
2021/05/30 00:42:35;;;;;;;4.08;3.50;;;;;;;15.80;82.70;100154.37;1753531;80;21496;-43
2021/05/30 00:45:02;;;;;;;3.37;3.05;;;;;;;15.77;82.76;100147.88;1757217;80;21056;-43
2021/05/30 00:47:29;;;;;;;5.65;3.50;;;;;;;15.75;82.68;100148.03;1756602;80;21021;-44
2021/05/30 00:49:56;;;;;;;6.45;3.12;;;;;;;15.73;82.73;100149.15;1757660;80;21523;-43
2021/05/30 00:52:24;;;;;;;5.45;2.92;;;;;;;15.71;82.63;100141.70;1756021;80;21021;-45
2021/05/30 00:54:50;;;;;;;3.40;3.10;;;;;;;15.68;82.65;100151.34;1756467;80;21001;-44
2021/05/30 00:57:17;;;;;;;3.98;3.12;;;;;;;15.66;82.70;100155.49;1756940;80;20989;-42
2021/05/30 00:59:44;;;;;;;9.40;3.17;;;;;;;15.64;82.51;100155.27;1753756;80;20989;-41
2021/05/30 01:02:10;;;;;;;14.30;7.83;;;;;;;15.59;82.59;100152.96;1757009;80;21053;-42
2021/05/30 01:04:37;;;;;;;4.83;3.70;;;;;;;15.57;82.60;100152.23;1754020;80;21033;-45
2021/05/30 01:07:05;;;;;;;7.62;3.62;;;;;;;15.53;82.67;100154.34;1720505;81;21423;-46
2021/05/30 01:09:33;;;;;;;6.17;3.47;;;;;;;15.48;82.78;100143.13;1749396;80;21001;-46
2021/05/30 01:11:59;;;;;;;4.85;3.92;;;;;;;15.46;82.77;100144.23;1756861;80;20969;-40
2021/05/30 01:14:28;;;;;;;4.12;3.30;;;;;;;15.39;82.90;100137.17;1646633;83;21084;-43
2021/05/30 01:16:57;;;;;;;5.25;3.10;;;;;;;15.35;83.20;100138.43;1761441;80;21524;-42
2021/05/30 01:19:23;;;;;;;3.98;3.20;;;;;;;15.28;83.44;100135.39;1749817;80;21086;-42
2021/05/30 01:21:51;;;;;;;4.55;3.58;;;;;;;15.23;83.82;100132.73;1684608;80;21065;-44
2021/05/30 01:24:18;;;;;;;6.53;3.42;;;;;;;15.20;84.28;100135.69;1757389;80;21552;-44
2021/05/30 01:26:46;;;;;;;4.25;3.12;;;;;;;15.20;84.63;100135.69;1757521;80;20992;-45
2021/05/30 01:29:12;;;;;;;4.20;3.25;;;;;;;15.16;84.77;100131.04;1756832;80;20968;-45
2021/05/30 01:31:39;;;;;;;3.08;2.70;;;;;;;15.15;84.92;100136.06;1754101;80;21025;-45
2021/05/30 01:34:06;;;;;;;4.80;2.85;;;;;;;15.14;84.90;100132.53;1754938;80;21040;-45
2021/05/30 01:36:32;;;;;;;4.95;3.20;;;;;;;15.14;85.00;100138.37;1758045;80;21028;-45
2021/05/30 01:39:00;;;;;;;3.92;2.90;;;;;;;15.12;85.12;100138.52;1746566;80;21066;-45
2021/05/30 01:41:27;;;;;;;4.37;3.42;;;;;;;15.14;85.24;100141.05;1737808;80;21042;-45
2021/05/30 01:43:55;;;;;;;3.75;3.35;;;;;;;15.14;85.24;100139.25;1704639;82;21018;-42
2021/05/30 01:46:21;;;;;;;4.58;3.62;;;;;;;15.11;85.30;100136.79;1698521;83;21037;-45
2021/05/30 01:48:47;;;;;;;3.58;3.17;;;;;;;15.10;85.44;100135.09;1698765;83;21022;-45
2021/05/30 01:51:14;;;;;;;4.55;2.92;;;;;;;15.08;85.51;100134.86;1697563;83;20987;-44
2021/05/30 01:58:34;;;;;;;3.87;2.87;;;;;;;14.96;86.36;100128.66;1697897;83;21034;-44
2021/05/30 02:01:00;;;;;;;10.28;3.10;;;;;;;14.94;86.66;100130.61;1733356;80;21002;-46
2021/05/30 02:03:27;;;;;;;4.10;3.20;;;;;;;14.94;86.74;100133.30;1724007;80;21007;-44
2021/05/30 02:05:54;;;;;;;4.35;3.17;;;;;;;14.94;86.79;100130.61;1737344;80;21003;-46
2021/05/30 02:08:20;;;;;;;4.53;3.45;;;;;;;14.91;86.94;100130.38;1737706;80;21018;-45
2021/05/30 02:10:47;;;;;;;4.65;3.00;;;;;;;14.91;87.13;100129.03;1739903;80;20998;-44
2021/05/30 02:13:14;;;;;;;4.53;3.30;;;;;;;14.91;87.16;100129.53;1738430;80;21010;-44
2021/05/30 02:15:40;;;;;;;3.55;3.12;;;;;;;14.90;87.29;100132.71;1706584;82;21013;-45
2021/05/30 02:18:07;;;;;;;4.25;3.30;;;;;;;14.91;87.50;100130.38;1694981;83;21486;-44
2021/05/30 02:20:38;;;;;;;3.47;3.10;;;;;;;14.96;87.69;100137.20;1696899;83;21143;-45
2021/05/30 02:23:07;;;;;;;4.03;3.10;;;;;;;14.99;87.87;100138.30;1696318;83;21015;-44
2021/05/30 02:25:34;;;;;;;6.25;3.17;;;;;;;15.02;87.97;100142.94;1698984;83;20995;-44
2021/05/30 02:28:00;;;;;;;4.47;3.02;;;;;;;15.05;88.19;100149.89;1694935;83;20998;-45
2021/05/30 02:30:27;;;;;;;5.03;3.00;;;;;;;15.07;88.25;100158.67;1697357;83;21593;-44
2021/05/30 02:32:54;;;;;;;3.45;2.77;;;;;;;15.08;88.21;100159.88;1699241;83;21014;-45
2021/05/30 02:35:22;;;;;;;6.47;3.72;;;;;;;15.09;87.91;100160.72;1698838;83;21042;-45
2021/05/30 02:37:49;;;;;;;3.95;3.08;;;;;;;15.08;87.51;100161.22;1698753;83;21016;-46
2021/05/30 02:40:15;;;;;;;3.05;2.77;;;;;;;15.09;87.13;100158.91;1715978;81;21444;-46
2021/05/30 02:42:42;;;;;;;5.20;3.42;;;;;;;15.10;86.85;100157.92;1724767;81;21002;-41
2021/05/30 02:45:09;;;;;;;5.67;3.70;;;;;;;15.12;86.56;100158.66;1722062;82;21070;-43
2021/05/30 02:47:37;;;;;;;3.45;3.10;;;;;;;15.12;86.29;100154.63;1722291;83;21513;-40
2021/05/30 02:50:05;;;;;;;2.98;2.67;;;;;;;15.11;86.02;100153.39;1692239;83;21546;-40
2021/05/30 02:52:32;;;;;;;4.10;2.87;;;;;;;15.08;86.13;100152.31;1755292;81;21018;-40
2021/05/30 02:54:58;;;;;;;3.92;2.75;;;;;;;15.08;86.01;100153.66;1714149;81;21075;-41
2021/05/30 02:57:25;;;;;;;3.90;2.52;;;;;;;15.09;85.94;100162.94;1741491;80;21001;-45
2021/05/30 02:59:52;;;;;;;3.72;2.92;;;;;;;15.11;85.96;100149.37;1745473;81;20989;-43
2021/05/30 03:02:18;;;;;;;4.75;3.00;;;;;;;15.12;85.98;100150.59;1735817;82;21017;-43
2021/05/30 03:04:45;;;;;;;7.37;2.92;;;;;;;15.13;85.84;100153.63;1755864;80;21038;-45
2021/05/30 03:07:11;;;;;;;7.50;2.98;;;;;;;15.12;85.51;100155.97;1718384;81;21809;-43
2021/05/30 03:09:38;;;;;;;3.52;2.67;;;;;;;15.11;85.25;100160.95;1740368;81;20994;-47
2021/05/30 03:12:07;;;;;;;4.30;2.60;;;;;;;15.11;85.12;100156.92;1754335;80;21060;-47
2021/05/30 03:14:34;;;;;;;3.52;3.20;;;;;;;15.10;85.11;100155.73;1758776;80;20982;-44
2021/05/30 03:17:00;;;;;;;6.47;3.30;;;;;;;15.03;85.22;100151.34;1750871;80;21021;-45
2021/05/30 03:19:27;;;;;;;3.15;2.80;;;;;;;15.01;85.39;100153.79;1757667;80;21955;-44
2021/05/30 03:21:53;;;;;;;3.37;2.77;;;;;;;15.00;85.69;100146.73;1732105;81;21071;-44
2021/05/30 03:24:20;;;;;;;6.05;2.98;;;;;;;15.00;85.81;100152.09;1760492;80;21041;-45
2021/05/30 03:26:46;;;;;;;3.90;2.98;;;;;;;15.02;85.98;100156.83;1720242;83;21520;-44
2021/05/30 03:29:13;;;;;;;7.60;2.75;;;;;;;15.04;86.17;100152.19;1748178;80;21041;-45
2021/05/30 03:31:40;;;;;;;3.42;2.87;;;;;;;15.07;86.45;100158.18;1742902;80;21018;-44
2021/05/30 03:34:06;;;;;;;3.42;2.30;;;;;;;15.12;86.85;100160.49;1746217;81;20994;-46
2021/05/30 03:36:34;;;;;;;2.40;2.17;;;;;;;15.17;87.38;100160.08;1743595;80;21018;-47
2021/05/30 03:39:07;;;;;;;4.00;3.02;;;;;;;15.21;87.50;100166.92;1748885;80;20990;-45
2021/05/30 03:41:36;;;;;;;10.20;8.45;;;;;;;15.25;87.53;100168.39;1736057;80;21065;-47
2021/05/30 03:44:04;;;;;;;11.40;8.28;;;;;;;15.30;87.76;100169.70;1738788;81;21029;-46
2021/05/30 03:46:30;;;;;;;7.00;3.98;;;;;;;15.36;87.61;100170.52;1696687;82;21006;-42
2021/05/30 03:48:57;;;;;;;3.62;3.33;;;;;;;15.39;87.22;100167.22;1740128;81;21539;-42
2021/05/30 03:51:24;;;;;;;3.75;3.40;;;;;;;15.40;87.14;100168.45;1738896;80;21001;-44
2021/05/30 03:53:50;;;;;;;4.42;3.40;;;;;;;15.41;87.08;100167.45;1737043;81;20998;-42
2021/05/30 03:56:17;;;;;;;4.03;3.17;;;;;;;15.44;87.02;100163.66;1739722;80;21045;-42
2021/05/30 03:58:44;;;;;;;5.15;3.42;;;;;;;15.47;87.08;100176.36;1738192;81;21533;-44
2021/05/30 04:01:10;;;;;;;6.35;3.75;;;;;;;15.48;87.03;100171.34;1736901;81;21030;-48
2021/05/30 04:03:37;;;;;;;3.87;3.40;;;;;;;15.48;86.99;100174.02;1736224;81;21034;-40
2021/05/30 04:06:04;;;;;;;5.78;3.50;;;;;;;15.49;87.06;100178.91;1738568;81;21568;-47
2021/05/30 04:08:32;;;;;;;7.47;3.22;;;;;;;15.49;87.17;100185.13;1737108;81;20979;-47
2021/05/30 04:10:58;;;;;;;3.20;2.90;;;;;;;15.49;87.33;100179.75;1739820;80;20994;-47
2021/05/30 04:13:25;;;;;;;4.22;3.30;;;;;;;15.50;87.46;100177.94;1736581;81;20997;-44
2021/05/30 04:15:52;;;;;;;5.42;3.87;;;;;;;15.52;87.51;100171.92;1742560;80;21003;-45
2021/05/30 04:18:24;;;;;;;5.25;4.65;;;;;;;15.55;87.52;100169.84;1736644;80;21533;-42
2021/05/30 04:20:51;;;;;;;4.03;3.62;;;;;;;15.57;87.46;100171.92;1706318;82;21125;-40
2021/05/30 04:23:18;;;;;;;4.72;4.22;;;;;;;15.59;87.44;100168.59;1740669;80;21001;-45
2021/05/30 04:25:45;;;;;;;6.17;3.72;;;;;;;15.62;87.42;100164.78;1741398;80;21509;-42
2021/05/30 04:28:11;;;;;;;5.90;4.75;;;;;;;15.64;87.36;100160.64;1735898;81;20955;-42
2021/05/30 04:30:38;;;;;;;5.72;4.83;;;;;;;15.66;87.30;100162.21;1737412;80;21034;-42
2021/05/30 04:33:05;;;;;;;4.83;3.83;;;;;;;15.66;87.26;100154.15;1740656;80;21010;-43
2021/05/30 04:35:32;;;;;;;4.22;3.67;;;;;;;15.69;87.26;100154.38;1736155;80;21473;-41
2021/05/30 04:37:59;;;;;;;3.98;3.55;;;;;;;15.68;87.29;100144.12;1738770;80;20950;-40
2021/05/30 04:40:25;;;;;;;2.72;2.52;;;;;;;15.68;87.27;100148.16;1706310;82;21636;-45
2021/05/30 04:42:52;;;;;;;5.20;2.75;;;;;;;15.68;87.33;100149.50;1738474;81;21022;-41
2021/05/30 04:45:20;;;;;;;3.17;2.62;;;;;;;15.71;87.38;100149.77;1739580;81;21328;-43
2021/05/30 04:47:49;;;;;;;4.15;2.15;;;;;;;15.70;86.48;100148.05;1739135;81;20998;-43
2021/05/30 04:50:15;;;;;;;2.95;1.95;;;;;;;15.68;85.02;100149.50;1738447;80;21006;-42
2021/05/30 04:52:42;;;;;;;3.15;1.75;;;;;;;15.68;83.91;100151.34;1736730;80;20989;-44
2021/05/30 04:55:11;;;;;;;7.05;2.10;;;;;;;15.68;82.03;100153.53;1740071;80;21102;-45
2021/05/30 04:57:40;;;;;;;2.52;1.87;;;;;;;15.64;81.36;100157.45;1738713;80;21038;-43
2021/05/30 05:00:08;;;;;;;2.10;1.90;;;;;;;15.63;80.73;100156.26;1707841;82;21025;-43
2021/05/30 05:02:35;;;;;;;3.15;2.17;;;;;;;15.59;80.44;100155.15;1739680;80;21459;-41
2021/05/30 05:05:02;;;;;;;4.15;2.02;;;;;;;15.58;80.83;100152.11;1736478;81;21045;-46
2021/05/30 05:07:29;;;;;;;14.40;3.25;;;;;;;15.63;81.40;100152.23;1737390;80;21045;-43
2021/05/30 05:09:55;;;;;;;4.67;2.55;;;;;;;15.70;81.26;100157.45;1734412;80;21460;-43
2021/05/30 05:12:22;;;;;;;4.28;2.60;;;;;;;15.77;81.11;100155.48;1733036;81;20987;-44
2021/05/30 05:14:48;;;;;;;2.47;2.22;;;;;;;15.86;81.28;100158.36;1738927;81;20998;-44
2021/05/30 05:17:15;;;;;;;3.75;2.60;;;;;;;15.92;81.34;100154.63;1738225;80;21031;-41
2021/05/30 05:19:41;;;;;;;2.60;1.87;;;;;;;15.96;80.69;100155.23;1741040;80;21510;-44
2021/05/30 05:22:08;;;;;;;2.35;1.85;;;;;;;15.96;80.19;100153.89;1736161;80;21077;-44
2021/05/30 05:24:35;;;;;;;2.27;1.92;;;;;;;15.95;79.36;100153.52;1740203;81;20970;-43
2021/05/30 05:27:02;;;;;;;2.17;1.75;;;;;;;15.94;78.89;100157.20;1737849;80;20995;-41
2021/05/30 05:29:28;;;;;;;2.35;1.87;;;;;;;15.93;78.83;100152.83;1739013;80;20994;-42
2021/05/30 05:31:55;;;;;;;2.98;2.35;;;;;;;15.94;78.13;100154.52;1740067;80;21579;-42
2021/05/30 05:34:22;;;;;;;2.25;1.80;;;;;;;15.95;77.73;100152.17;1739667;80;21006;-45
2021/05/30 05:36:49;;;;;;;3.72;1.77;;;;;;;15.97;77.42;100147.52;1736921;80;20999;-40
2021/05/30 05:39:15;;;;;;;3.00;1.27;;;;;;;15.99;75.48;100141.02;1706571;82;21013;-45
2021/05/30 05:41:42;;;;;;;2.25;1.70;;;;;;;16.00;74.54;100144.56;1737641;80;21042;-42
2021/05/30 05:44:09;;;;;;;4.30;1.65;;;;;;;16.02;74.71;100142.59;1739146;81;20999;-44
2021/05/30 05:46:35;;;;;;;2.15;1.35;;;;;;;16.04;74.63;100151.39;1737598;80;21037;-43
2021/05/30 05:49:02;;;;;;;1.45;1.32;;;;;;;16.06;74.23;100149.42;1735503;80;21030;-43
2021/05/30 05:51:28;;;;;;;2.02;1.45;;;;;;;16.09;74.19;100145.12;1735097;80;21062;-44
2021/05/30 05:53:55;;;;;;;2.98;1.67;;;;;;;16.13;74.05;100149.26;1737148;80;21022;-45
2021/05/30 05:56:21;;;;;;;1.90;1.42;;;;;;;16.17;73.27;100149.83;1734789;80;21506;-43
2021/05/30 05:58:47;;;;;;;2.87;1.55;;;;;;;16.20;73.49;100148.21;1741231;80;20994;-45
2021/05/30 06:01:14;;;;;;;2.77;1.45;;;;;;;16.25;73.79;100147.81;1737610;80;21521;-43
2021/05/30 06:03:41;;;;;;;1.40;1.17;;;;;;;16.30;72.88;100141.53;1731755;81;21002;-43
2021/05/30 06:06:08;;;;;;;2.90;1.72;;;;;;;16.33;72.83;100139.91;1734554;80;21001;-43
2021/05/30 06:08:35;;;;;;;2.85;1.47;;;;;;;16.36;72.26;100141.02;1735812;80;21038;-45
2021/05/30 06:11:02;;;;;;;2.40;1.40;;;;;;;16.34;71.11;100130.38;1740850;81;21002;-45
2021/05/30 06:13:28;;;;;;;2.85;1.40;;;;;;;16.33;70.93;100138.10;1734974;80;21482;-43
2021/05/30 06:15:56;;;;;;;2.60;1.45;;;;;;;16.34;71.03;100139.80;1737899;82;20974;-44
2021/05/30 06:18:23;;;;;;;1.92;1.62;;;;;;;16.36;70.28;100146.40;1734819;80;21002;-42
2021/05/30 06:20:50;;;;;;;2.10;1.62;;;;;;;16.37;70.39;100152.13;1738101;81;20994;-46
2021/05/30 06:23:16;;;;;;;2.22;1.20;;;;;;;16.37;71.32;100155.66;1737255;80;20994;-45
2021/05/30 06:25:44;;;;;;;2.27;1.85;;;;;;;16.43;71.66;100156.98;1739235;81;21029;-48
2021/05/30 06:28:11;;;;;;;2.42;1.47;;;;;;;16.49;70.84;100148.86;1734657;81;21005;-46
2021/05/30 06:30:39;;;;;;;1.87;1.70;;;;;;;16.52;70.94;100152.11;1727566;81;21005;-47
2021/05/30 06:33:08;;;;;;;1.42;1.27;;;;;;;16.56;70.70;100162.98;1736294;80;20994;-46
2021/05/30 06:35:36;;;;;;;2.52;1.47;;;;;;;16.60;70.96;100160.85;1736052;80;21337;-43
2021/05/30 06:38:02;;;;;;;1.90;1.37;;;;;;;16.62;70.23;100161.57;1735642;80;21006;-44
2021/05/30 06:40:29;;;;;;;1.65;1.50;;;;;;;16.66;70.20;100157.63;1707409;82;21747;-46
2021/05/30 06:42:57;;;;;;;3.62;2.05;;;;;;;16.70;70.11;100156.35;1737700;81;21006;-49
2021/05/30 06:45:24;;;;;;;9.13;1.80;;;;;;;16.72;69.72;100162.95;1732778;80;21022;-42
2021/05/30 06:47:51;;;;;;;2.95;1.35;;;;;;;16.69;68.66;100160.55;1732368;80;22007;-45
2021/05/30 06:50:18;;;;;;;2.10;1.40;;;;;;;16.66;68.77;100168.41;1739063;81;21030;-44
2021/05/30 06:52:44;;;;;;;1.65;1.50;;;;;;;16.66;68.60;100175.98;1735122;81;21043;-45
2021/05/30 06:55:13;;;;;;;1.80;1.27;;;;;;;16.68;68.67;100177.16;1738811;81;20998;-44
2021/05/30 06:57:39;;;;;;;1.30;1.20;;;;;;;16.66;68.45;100180.02;1735114;80;21593;-44
2021/05/30 07:00:07;;;;;;;2.40;1.80;;;;;;;16.68;68.94;100181.70;1706992;82;21033;-44
2021/05/30 07:02:34;;;;;;;3.25;1.50;;;;;;;16.70;69.63;100181.08;1731633;80;21094;-45
2021/05/30 07:05:00;;;;;;;1.75;1.52;;;;;;;16.72;69.16;100180.45;1735369;81;20999;-47
2021/05/30 07:07:27;;;;;;;1.67;1.57;;;;;;;16.74;69.64;100185.22;1735760;80;21482;-48
2021/05/30 07:09:55;;;;;;;3.20;1.47;;;;;;;16.73;69.76;100183.49;1735081;81;21526;-47
2021/05/30 07:12:22;;;;;;;2.72;1.57;;;;;;;16.72;69.25;100179.95;1738385;81;21493;-51
2021/05/30 07:14:49;;;;;;;3.52;1.55;;;;;;;16.69;68.51;100186.12;1738984;80;21064;-51
2021/05/30 07:17:17;;;;;;;2.95;1.55;;;;;;;16.63;67.77;100186.14;1700824;82;20982;-50
2021/05/30 07:19:50;;;;;;;3.47;1.60;;;;;;;16.60;68.92;100196.69;1738381;81;21002;-49
2021/05/30 07:22:13;;;;;;;1.90;1.65;;;;;;;16.56;68.94;100200.66;1735510;81;21062;-46
2021/05/30 07:24:40;;;;;;;2.10;1.50;;;;;;;16.56;69.43;100199.81;1734478;80;21005;-46
2021/05/30 07:27:07;;;;;;;3.30;1.90;;;;;;;16.57;69.84;100202.84;1736469;81;20983;-48
2021/05/30 07:29:34;;;;;;;1.70;1.50;;;;;;;16.56;69.91;100206.04;1734053;80;20994;-44
2021/05/30 07:32:01;;;;;;;2.10;1.90;;;;;;;16.58;70.48;100212.61;1705787;82;21021;-47
2021/05/30 07:34:27;;;;;;;3.58;2.40;;;;;;;16.61;70.06;100203.80;1738383;80;22062;-50
2021/05/30 07:36:55;;;;;;;4.37;1.98;;;;;;;16.63;70.77;100209.90;1702615;82;21053;-55
2021/05/30 07:39:23;;;;;;;1.67;1.57;;;;;;;16.62;70.59;100212.21;1740594;81;21000;-53
2021/05/30 07:41:49;;;;;;;2.00;1.77;;;;;;;16.66;70.90;100211.47;1736476;81;21034;-55
2021/05/30 07:44:16;;;;;;;3.92;1.80;;;;;;;16.69;70.20;100209.00;1709149;82;21497;-55
2021/05/30 07:46:42;;;;;;;3.95;1.98;;;;;;;16.71;70.56;100209.72;1739653;81;21016;-49
2021/05/30 07:49:09;;;;;;;2.22;1.72;;;;;;;16.72;70.18;100210.91;1732930;81;20970;-48
2021/05/30 07:51:36;;;;;;;2.02;1.65;;;;;;;16.71;69.64;100214.61;1707379;82;21067;-40
2021/05/30 07:54:03;;;;;;;3.62;2.10;;;;;;;16.73;69.83;100219.84;1734118;81;21585;-45
2021/05/30 07:56:29;;;;;;;2.02;1.82;;;;;;;16.73;70.48;100215.33;1732462;80;21017;-49
2021/05/30 07:58:56;;;;;;;4.28;1.92;;;;;;;16.78;70.81;100214.45;1708020;82;20996;-50
2021/05/30 08:01:23;;;;;;;2.67;2.30;;;;;;;16.82;70.87;100207.80;1739622;81;21504;-53
2021/05/30 08:03:50;;;;;;;3.05;2.22;;;;;;;16.86;70.80;100204.35;1735420;80;21368;-50
2021/05/30 08:06:16;;;;;;;3.00;2.08;;;;;;;16.92;70.81;100202.94;1736601;81;21034;-52
2021/05/30 08:08:43;;;;;;;2.00;1.80;;;;;;;16.99;70.72;100200.06;1737600;80;21041;-49
2021/05/30 08:11:10;;;;;;;3.05;1.90;;;;;;;17.07;71.30;100201.56;1741837;80;20996;-50
2021/05/30 08:13:38;;;;;;;3.65;1.70;;;;;;;17.14;70.80;100211.30;1730661;81;21474;-53
2021/05/30 08:16:05;;;;;;;2.12;1.85;;;;;;;17.18;68.37;100204.62;1721174;80;21050;-51
2021/05/30 08:18:31;;;;;;;2.87;1.72;;;;;;;17.20;68.32;100208.04;1738908;81;21033;-53
2021/05/30 08:21:00;;;;;;;1.40;1.30;;;;;;;17.22;66.88;100199.33;1686760;83;20990;-48
2021/05/30 08:23:26;;;;;;;2.00;1.40;;;;;;;17.22;65.95;100204.72;1739343;80;21049;-48
2021/05/30 08:25:53;;;;;;;1.87;1.52;;;;;;;17.20;65.47;100201.30;1737623;80;21021;-51
2021/05/30 08:28:20;;;;;;;3.40;1.77;;;;;;;17.21;65.75;100205.22;1737655;82;21608;-53
2021/05/30 08:30:47;;;;;;;2.98;1.35;;;;;;;17.24;65.40;100198.70;1737641;81;21011;-55
2021/05/30 08:33:13;;;;;;;1.00;0.95;;;;;;;17.26;65.39;100201.61;1738822;80;20962;-56
2021/05/30 08:35:41;;;;;;;0.80;0.80;;;;;;;17.33;65.95;100209.97;1740108;81;21669;-52
2021/05/30 08:38:08;;;;;;;1.72;1.20;;;;;;;17.36;63.75;100202.10;1734621;80;20997;-53
2021/05/30 08:40:34;;;;;;;0.93;0.82;;;;;;;17.40;64.33;100204.38;1741625;80;21038;-53
2021/05/30 08:43:01;;;;;;;0.82;0.80;;;;;;;17.49;64.48;100204.05;1752428;80;21025;-55
2021/05/30 08:45:27;;;;;;;1.05;0.90;;;;;;;17.55;64.10;100202.13;1761038;80;21025;-48
2021/05/30 08:47:54;;;;;;;1.10;1.00;;;;;;;17.56;63.68;100205.66;1754313;80;21545;-48
2021/05/30 08:50:21;;;;;;;1.17;0.93;;;;;;;17.52;63.48;100207.30;1756119;80;20998;-46
2021/05/30 08:52:48;;;;;;;1.30;1.07;;;;;;;17.49;64.13;100213.48;1753912;80;21536;-45
2021/05/30 08:55:14;;;;;;;3.22;1.20;;;;;;;17.46;63.65;100216.44;1753805;80;21376;-43
2021/05/30 08:57:41;;;;;;;2.45;0.90;;;;;;;17.42;64.55;100222.62;1762189;80;21031;-46
2021/05/30 09:00:10;;;;;;;3.12;2.12;;;;;;;17.40;64.44;100212.97;1756969;80;21035;-44
2021/05/30 09:02:37;;;;;;;2.30;1.07;;;;;;;17.37;64.08;100218.64;1755397;80;21013;-45
2021/05/30 09:05:07;;;;;;;4.50;1.30;;;;;;;17.41;64.38;100224.09;1753503;80;21025;-47
2021/05/30 09:07:47;;;;;;;4.25;2.33;;;;;;;17.41;63.24;100220.92;1754281;80;21057;-46
2021/05/30 09:10:23;;;;;;;2.42;1.42;;;;;;;17.44;65.08;100221.14;1754245;80;21033;-49
2021/05/30 09:12:48;;;;;;;1.75;1.00;;;;;;;17.52;65.72;100228.87;1754988;80;21021;-45
2021/05/30 09:15:37;;;;;;;1.57;1.37;;;;;;;17.61;65.86;100237.09;1707192;80;21555;-45
2021/05/30 09:18:14;;;;;;;1.10;1.00;;;;;;;17.66;66.03;100241.06;1716018;81;21551;-46
2021/05/30 09:20:55;;;;;;;1.27;1.17;;;;;;;17.67;64.89;100238.73;1748719;80;21031;-47
2021/05/30 09:23:44;;;;;;;1.57;1.12;;;;;;;17.67;65.45;100241.44;1755327;80;20998;-45
2021/05/30 09:26:19;;;;;;;2.52;1.67;;;;;;;17.66;65.57;100244.27;1751716;80;22050;-47
2021/05/30 09:29:09;;;;;;;1.30;1.17;;;;;;;17.56;64.48;100240.20;1751287;80;21575;-48
2021/05/30 09:31:58;;;;;;;2.37;1.47;;;;;;;17.47;65.56;100247.30;1758202;80;21010;-47
2021/05/30 09:34:34;;;;;;;1.92;1.35;;;;;;;17.46;65.80;100248.30;1757685;80;21771;-45
2021/05/30 09:37:01;;;;;;;2.50;1.35;;;;;;;17.43;65.88;100248.56;1756917;80;20985;-45
2021/05/30 09:39:43;;;;;;;4.28;1.50;;;;;;;17.41;66.90;100259.12;1756223;80;20977;-46
2021/05/30 09:42:36;;;;;;;5.08;1.50;;;;;;;17.40;66.92;100260.97;1750321;80;21008;-56
2021/05/30 09:45:06;;;;;;;2.17;1.40;;;;;;;17.43;67.43;100263.38;1738300;80;20999;-45
2021/05/30 09:47:38;;;;;;;2.02;1.57;;;;;;;17.45;68.32;100269.49;1739470;81;20991;-45
2021/05/30 09:50:09;;;;;;;2.35;1.62;;;;;;;17.46;68.41;100272.56;1734187;80;21006;-46
2021/05/30 09:52:42;;;;;;;1.50;1.30;;;;;;;17.46;68.58;100273.91;1705078;82;20981;-46
2021/05/30 09:55:25;;;;;;;4.05;1.87;;;;;;;17.45;68.15;100276.23;1693550;83;21015;-46
2021/05/30 09:58:15;;;;;;;1.75;1.60;;;;;;;17.44;67.75;100271.00;1695185;83;21022;-46
2021/05/30 10:00:43;;;;;;;3.12;1.95;;;;;;;17.42;68.28;100275.17;1706980;83;20978;-50
2021/05/30 10:03:10;;;;;;;4.08;1.92;;;;;;;17.41;68.29;100270.78;1737234;80;21050;-46
2021/05/30 10:05:37;;;;;;;2.25;1.87;;;;;;;17.43;68.51;100273.31;1736804;80;21041;-46
2021/05/30 10:08:04;;;;;;;1.77;1.35;;;;;;;17.39;68.02;100270.06;1736998;80;21013;-45
2021/05/30 10:10:32;;;;;;;2.35;1.90;;;;;;;17.38;68.36;100264.30;1737000;80;21485;-45
2021/05/30 10:13:03;;;;;;;3.25;1.85;;;;;;;17.39;68.03;100267.37;1736362;80;21024;-46
2021/05/30 10:15:30;;;;;;;3.25;1.47;;;;;;;17.40;68.12;100265.52;1737403;80;20994;-46
2021/05/30 10:18:01;;;;;;;2.90;1.60;;;;;;;17.44;69.07;100261.56;1703849;82;21025;-44
2021/05/30 10:20:28;;;;;;;2.50;1.80;;;;;;;17.47;68.10;100273.41;1696152;83;21025;-49
2021/05/30 10:22:56;;;;;;;2.00;1.60;;;;;;;17.46;67.34;100273.03;1698667;83;21081;-44
2021/05/30 10:25:34;;;;;;;3.87;2.02;;;;;;;17.44;67.00;100268.30;1736800;80;20994;-47
2021/05/30 10:28:15;;;;;;;2.55;1.90;;;;;;;17.43;66.50;100271.97;1737351;80;21480;-46
2021/05/30 10:30:45;;;;;;;2.30;1.57;;;;;;;17.37;65.91;100262.61;1679693;83;21009;-45
2021/05/30 10:33:24;;;;;;;3.27;1.85;;;;;;;17.33;65.95;100263.86;1681001;83;21056;-44
2021/05/30 10:35:53;;;;;;;1.65;1.55;;;;;;;17.33;67.33;100274.64;1696329;83;21013;-46
2021/05/30 10:38:39;;;;;;;4.15;2.35;;;;;;;17.39;67.55;100273.27;1705180;82;21548;-45
2021/05/30 10:41:16;;;;;;;2.75;1.60;;;;;;;17.44;66.95;100278.58;1738204;81;20995;-44
2021/05/30 10:43:44;;;;;;;2.70;1.50;;;;;;;17.43;65.74;100281.41;1724157;81;21077;-46
2021/05/30 10:46:11;;;;;;;3.85;1.70;;;;;;;17.39;66.11;100288.08;1736601;80;21036;-45
2021/05/30 10:48:40;;;;;;;2.30;1.85;;;;;;;17.35;66.56;100290.69;1736654;80;21392;-51
2021/05/30 10:53:50;;;;;;;;;;;;;;;17.28;66.24;100287.17;1739414;80;21372;-46
2021/05/30 10:56:31;;;;;;;4.83;1.60;;;;;;;17.21;65.57;100286.52;1739139;80;20506;-44
2021/05/30 10:59:17;;;;;;;1.60;1.50;;;;;;;17.09;65.65;100285.29;1702639;82;21017;-46
2021/05/30 11:01:46;;;;;;;4.42;1.90;;;;;;;17.04;66.38;100293.42;1699052;83;21002;-51
2021/05/30 11:04:30;;;;;;;3.42;1.50;;;;;;;17.08;67.38;100293.02;1737200;80;21002;-53
2021/05/30 11:07:24;;;;;;;2.58;1.87;;;;;;;17.14;67.40;100297.51;1735765;80;20967;-44
2021/05/30 11:10:01;;;;;;;4.28;1.50;;;;;;;17.13;67.30;100296.62;1670107;83;21041;-44
2021/05/30 11:12:34;;;;;;;5.40;1.62;;;;;;;17.13;68.32;100302.52;1669566;84;21018;-52
2021/05/30 11:15:19;;;;;;;2.65;1.80;;;;;;;17.13;68.43;100312.79;1668658;83;21033;-47
2021/05/30 11:17:53;;;;;;;3.10;2.05;;;;;;;17.09;68.22;100320.30;1673110;83;21002;-47
2021/05/30 11:20:41;;;;;;;2.17;1.98;;;;;;;17.04;67.99;100328.44;1670835;84;21058;-45
2021/05/30 11:23:12;;;;;;;2.77;2.00;;;;;;;16.97;68.61;100324.08;1669994;83;21129;-46
2021/05/30 11:25:48;;;;;;;4.35;1.85;;;;;;;16.94;68.57;100327.05;1669876;84;21641;-48
2021/05/30 11:28:17;;;;;;;4.28;2.42;;;;;;;16.89;68.61;100338.71;1666921;83;21056;-46
2021/05/30 11:30:59;;;;;;;5.75;2.65;;;;;;;16.80;68.73;100345.73;1672768;83;21524;-45
2021/05/30 11:33:30;;;;;;;2.05;1.80;;;;;;;16.70;68.78;100348.83;1667751;83;21404;-46
2021/05/30 11:36:02;;;;;;;2.58;2.08;;;;;;;16.56;69.00;100352.72;1671097;84;21598;-45
2021/05/30 11:38:37;;;;;;;3.47;2.52;;;;;;;16.47;69.64;100349.95;1670807;83;21862;-47